createdAt,value
2023-06-19T04:25:52.855Z,47.31
2023-06-19T04:28:19.442Z,48.32
2023-06-19T04:30:46.067Z,49.21
2023-06-19T04:33:12.801Z,50.94
2023-06-19T04:35:41.388Z,51.62
2023-06-19T04:38:08.753Z,50.74
2023-06-19T04:40:35.213Z,51.01
2023-06-19T04:43:03.768Z,51.51
2023-06-19T04:45:30.206Z,51.69
2023-06-19T04:47:56.781Z,52.00
2023-06-19T04:50:23.736Z,51.55
2023-06-19T04:52:52.490Z,51.77
2023-06-19T04:55:19.875Z,51.62
2023-06-19T04:57:46.530Z,51.47
2023-06-19T05:00:16.166Z,51.80
2023-06-19T05:02:45.262Z,51.37
2023-06-19T05:05:12.228Z,51.28
2023-06-19T05:07:38.710Z,51.23
2023-06-19T05:10:05.478Z,50.80
2023-06-19T05:12:32.128Z,50.96
2023-06-19T05:14:58.552Z,50.96
2023-06-19T05:17:25.250Z,51.19
2023-06-19T05:19:51.767Z,51.02
2023-06-19T05:22:19.673Z,51.25
2023-06-19T05:24:47.094Z,51.21
2023-06-19T05:27:13.449Z,51.15
2023-06-19T05:29:39.838Z,51.12
2023-06-19T05:32:06.539Z,51.32
2023-06-19T05:34:33.079Z,51.54
2023-06-19T05:37:01.825Z,51.54
2023-06-19T05:39:28.872Z,51.86
2023-06-19T05:41:55.505Z,51.69
2023-06-19T05:44:21.886Z,51.94
2023-06-19T05:46:48.509Z,52.00
2023-06-19T05:49:15.087Z,52.01
2023-06-19T05:51:42.106Z,52.07
2023-06-19T05:54:08.664Z,52.04
2023-06-19T05:56:35.145Z,52.26
2023-06-19T05:59:02.668Z,52.06
2023-06-19T06:01:30.465Z,51.68
2023-06-19T06:03:57.662Z,51.58
2023-06-19T06:06:25.224Z,51.64
2023-06-19T06:08:53.368Z,51.50
2023-06-19T06:11:21.068Z,51.27
2023-06-19T06:13:48.816Z,51.33
2023-06-19T06:16:15.797Z,51.61
2023-06-19T06:18:42.685Z,51.32
2023-06-19T06:21:09.511Z,50.79
2023-06-19T06:23:36.606Z,50.84
2023-06-19T06:26:04.070Z,50.92
2023-06-19T06:28:30.804Z,50.83
2023-06-19T06:30:57.229Z,51.09
2023-06-19T06:33:24.610Z,50.76
2023-06-19T06:35:53.055Z,51.16
2023-06-19T06:38:19.682Z,51.71
2023-06-19T06:40:46.858Z,51.73
2023-06-19T06:43:13.237Z,51.25
2023-06-19T06:45:39.997Z,51.93
2023-06-19T06:48:08.359Z,51.89
2023-06-19T06:50:35.380Z,51.93
2023-06-19T06:53:02.241Z,51.82
2023-06-19T06:55:28.647Z,51.35
2023-06-19T06:57:55.415Z,51.33
2023-06-19T07:00:22.495Z,51.33
2023-06-19T07:02:51.607Z,50.97
2023-06-19T07:05:18.810Z,50.30
2023-06-19T07:07:45.353Z,50.13
2023-06-19T07:10:13.559Z,50.40
2023-06-19T07:12:49.773Z,50.41
2023-06-19T07:15:17.390Z,50.01
2023-06-19T07:17:48.101Z,49.69
2023-06-19T07:20:15.575Z,49.20
2023-06-19T07:22:43.534Z,49.33
2023-06-19T07:25:12.261Z,49.62
2023-06-19T07:27:39.572Z,49.21
2023-06-19T07:30:06.760Z,48.86
2023-06-19T07:32:33.150Z,48.90
2023-06-19T07:34:59.883Z,48.16
2023-06-19T07:37:27.724Z,48.62
2023-06-19T07:39:54.110Z,48.09
2023-06-19T07:42:21.180Z,47.87
2023-06-19T07:44:47.626Z,48.23
2023-06-19T07:47:15.945Z,48.34
2023-06-19T07:49:42.535Z,48.10
2023-06-19T07:52:12.130Z,48.63
2023-06-19T07:54:58.876Z,47.83
2023-06-19T07:57:26.502Z,46.49
2023-06-19T07:59:55.728Z,47.60
2023-06-19T08:02:22.312Z,47.33
2023-06-19T08:04:49.002Z,46.84
2023-06-19T08:07:15.461Z,46.89
2023-06-19T08:09:41.975Z,46.56
2023-06-19T08:12:08.826Z,45.51
2023-06-19T08:14:35.510Z,45.35
2023-06-19T08:17:02.194Z,45.35
2023-06-19T08:19:28.630Z,44.77
2023-06-19T08:21:55.016Z,44.80
2023-06-19T08:24:21.649Z,44.86
2023-06-19T08:26:52.198Z,45.19
2023-06-19T08:29:19.681Z,45.79
2023-06-19T08:31:46.293Z,45.78
2023-06-19T08:34:12.769Z,44.85
2023-06-19T08:36:39.099Z,45.36
2023-06-19T08:39:05.542Z,45.44
2023-06-19T08:41:32.578Z,45.17
2023-06-19T08:43:59.306Z,45.08
2023-06-19T08:46:26.190Z,45.11
2023-06-19T08:48:55.758Z,44.42
2023-06-19T08:51:22.218Z,45.44
2023-06-19T08:53:52.419Z,44.97
2023-06-19T08:56:18.980Z,44.84
2023-06-19T08:58:45.538Z,44.18
2023-06-19T09:01:11.990Z,44.34
2023-06-19T09:03:38.642Z,44.36
2023-06-19T09:06:08.506Z,44.37
2023-06-19T09:08:35.481Z,44.37
2023-06-19T09:11:07.354Z,43.77
2023-06-19T09:13:34.995Z,44.31
2023-06-19T09:16:09.143Z,44.44
2023-06-19T09:18:47.468Z,45.56
2023-06-19T09:21:19.705Z,45.48
2023-06-19T09:23:47.457Z,44.81
2023-06-19T09:26:17.603Z,44.88
2023-06-19T09:28:44.809Z,45.40
2023-06-19T09:31:12.290Z,45.67
2023-06-19T09:33:40.120Z,45.74
2023-06-19T09:36:08.040Z,45.60
2023-06-19T09:38:38.927Z,45.71
2023-06-19T09:41:07.018Z,45.81
2023-06-19T09:43:48.670Z,45.60
2023-06-19T09:46:16.097Z,45.89
2023-06-19T09:48:45.317Z,45.95
2023-06-19T09:51:19.260Z,46.30
2023-06-19T09:53:47.076Z,46.59
2023-06-19T09:56:15.051Z,46.56
2023-06-19T09:58:44.420Z,46.69
2023-06-19T10:01:11.465Z,46.27
2023-06-19T10:03:38.064Z,46.46
2023-06-19T10:06:06.141Z,46.31
2023-06-19T10:08:40.499Z,46.10
2023-06-19T10:11:07.290Z,46.03
2023-06-19T10:13:37.548Z,46.59
2023-06-19T10:16:04.349Z,46.46
2023-06-19T10:18:33.113Z,46.41
2023-06-19T10:20:59.533Z,46.45
2023-06-19T10:23:29.519Z,46.40
2023-06-19T10:25:57.485Z,45.96
2023-06-19T10:28:29.518Z,46.08
2023-06-19T10:31:07.170Z,46.50
2023-06-19T10:33:35.455Z,45.98
2023-06-19T10:36:19.467Z,46.52
2023-06-19T10:38:48.597Z,46.04
2023-06-19T10:41:17.067Z,45.98
2023-06-19T10:43:53.816Z,46.45
2023-06-19T10:46:22.855Z,46.32
2023-06-19T10:48:49.530Z,46.20
2023-06-19T10:51:20.576Z,46.45
2023-06-19T10:53:47.258Z,45.74
2023-06-19T10:56:14.370Z,45.24
2023-06-19T10:58:40.947Z,45.44
2023-06-19T11:01:07.308Z,45.64
2023-06-19T11:03:36.024Z,45.71
2023-06-19T11:06:02.622Z,45.85
2023-06-19T11:08:29.319Z,45.62
2023-06-19T11:10:56.493Z,45.71
2023-06-19T11:13:23.571Z,45.76
2023-06-19T11:15:51.161Z,45.67
2023-06-19T11:18:19.419Z,45.70
2023-06-19T11:20:47.236Z,46.05
2023-06-19T11:23:13.906Z,46.28
2023-06-19T11:25:42.206Z,46.47
2023-06-19T11:28:14.388Z,46.55
2023-06-19T11:30:41.946Z,46.58
2023-06-19T11:33:24.437Z,47.45
2023-06-19T11:35:52.096Z,46.91
2023-06-19T11:38:27.366Z,47.31
2023-06-19T11:40:57.871Z,47.57
2023-06-19T11:43:33.919Z,47.74
2023-06-19T11:46:08.849Z,47.67
2023-06-19T11:48:39.147Z,47.72
2023-06-19T11:51:09.735Z,47.27
2023-06-19T11:53:36.404Z,47.55
2023-06-19T11:56:02.911Z,47.67
2023-06-19T11:58:29.325Z,47.37
2023-06-19T12:00:57.894Z,47.13
2023-06-19T12:03:24.697Z,47.60
2023-06-19T12:05:51.353Z,46.72
2023-06-19T12:08:17.744Z,46.95
2023-06-19T12:10:44.442Z,46.88
2023-06-19T12:13:10.861Z,47.02
2023-06-19T12:15:38.100Z,46.50
2023-06-19T12:18:05.771Z,46.27
2023-06-19T12:20:32.431Z,46.21
2023-06-19T12:22:59.237Z,46.32
2023-06-19T12:25:25.790Z,46.20
2023-06-19T12:27:55.309Z,45.78
2023-06-19T12:30:22.339Z,45.80
2023-06-19T12:32:50.891Z,45.71
2023-06-19T12:35:17.956Z,45.92
2023-06-19T12:37:44.689Z,45.78
2023-06-19T12:40:12.149Z,45.72
2023-06-19T12:42:38.864Z,45.46
2023-06-19T12:45:05.686Z,45.05
2023-06-19T12:47:33.030Z,45.32
2023-06-19T12:49:59.614Z,44.79
2023-06-19T12:52:26.172Z,44.74
2023-06-19T12:54:52.590Z,43.90
2023-06-19T12:57:19.133Z,43.67
2023-06-19T12:59:45.723Z,43.58
2023-06-19T13:02:15.157Z,42.97
2023-06-19T13:04:42.134Z,43.04
2023-06-19T13:07:08.868Z,43.06
2023-06-19T13:09:36.964Z,44.08
2023-06-19T13:12:03.955Z,43.85
2023-06-19T13:14:30.384Z,43.60
2023-06-19T13:16:58.552Z,43.28
2023-06-19T13:19:25.907Z,42.69
2023-06-19T13:21:52.941Z,42.97
2023-06-19T13:24:19.343Z,43.30
2023-06-19T13:26:46.279Z,42.19
2023-06-19T13:29:14.931Z,42.52
2023-06-19T13:31:41.587Z,42.54
2023-06-19T13:34:08.186Z,43.31
2023-06-19T13:36:34.884Z,43.19
2023-06-19T13:39:01.644Z,43.49
2023-06-19T13:41:29.146Z,43.26
2023-06-19T13:43:55.951Z,43.21
2023-06-19T13:46:25.360Z,43.28
2023-06-19T13:48:52.624Z,42.83
2023-06-19T13:51:20.453Z,43.29
2023-06-19T13:53:47.009Z,43.01
2023-06-19T13:56:14.101Z,43.28
2023-06-19T13:58:40.922Z,42.69
2023-06-19T14:01:07.379Z,42.59
2023-06-19T14:03:34.300Z,42.36
2023-06-19T14:06:01.501Z,42.81
2023-06-19T14:08:27.921Z,42.92
2023-06-19T14:10:54.329Z,43.44
2023-06-19T14:13:20.997Z,42.98
2023-06-19T14:15:47.402Z,42.83
2023-06-19T14:18:13.869Z,42.51
2023-06-19T14:20:41.008Z,42.68
2023-06-19T14:23:08.330Z,42.47
2023-06-19T14:25:38.998Z,42.70
2023-06-19T14:28:06.600Z,42.20
2023-06-19T14:30:33.234Z,42.20
2023-06-19T14:32:59.844Z,42.43
2023-06-19T14:35:26.358Z,42.02
2023-06-19T14:37:53.038Z,41.63
2023-06-19T14:40:19.812Z,42.22
2023-06-19T14:42:46.261Z,41.32
2023-06-19T14:45:12.747Z,41.72
2023-06-19T14:47:39.643Z,41.79
2023-06-19T14:50:06.901Z,41.70
2023-06-19T14:52:33.557Z,41.23
2023-06-19T14:55:00.678Z,41.52
2023-06-19T14:57:27.948Z,41.83
2023-06-19T14:59:54.601Z,41.41
2023-06-19T15:02:21.173Z,41.63
2023-06-19T15:05:01.108Z,41.69
2023-06-19T15:07:32.566Z,41.27
2023-06-19T15:10:00.461Z,41.43
2023-06-19T15:12:27.664Z,41.96
2023-06-19T15:14:54.314Z,41.70
2023-06-19T15:17:22.298Z,41.63
2023-06-19T15:19:48.904Z,41.32
2023-06-19T15:22:15.258Z,41.37
2023-06-19T15:24:42.022Z,41.52
2023-06-19T15:27:08.487Z,41.45
2023-06-19T15:29:35.013Z,41.16
2023-06-19T15:32:01.404Z,41.53
2023-06-19T15:34:28.145Z,41.34
2023-06-19T15:36:54.680Z,41.19
2023-06-19T15:39:21.232Z,41.11
2023-06-19T15:41:47.592Z,41.29
2023-06-19T15:44:15.658Z,41.28
2023-06-19T15:46:42.151Z,41.09
2023-06-19T15:49:11.512Z,41.10
2023-06-19T15:51:38.097Z,40.80
2023-06-19T15:54:04.594Z,41.21
2023-06-19T15:56:32.092Z,41.49
2023-06-19T15:58:58.504Z,41.05
2023-06-19T16:01:25.065Z,40.82
2023-06-19T16:03:52.185Z,40.93
2023-06-19T16:06:18.937Z,41.58
2023-06-19T16:08:46.104Z,41.27
2023-06-19T16:11:13.560Z,40.81
2023-06-19T16:13:40.548Z,40.91
2023-06-19T16:16:07.228Z,40.70
2023-06-19T16:18:34.147Z,40.65
2023-06-19T16:21:00.962Z,40.78
2023-06-19T16:23:27.691Z,40.19
2023-06-19T16:25:54.255Z,40.12
2023-06-19T16:28:20.856Z,39.99
2023-06-19T16:30:47.432Z,40.04
2023-06-19T16:33:13.980Z,40.22
2023-06-19T16:35:46.631Z,40.20
2023-06-19T16:38:13.033Z,39.94
2023-06-19T16:40:39.786Z,40.17
2023-06-19T16:43:06.262Z,39.92
2023-06-19T16:45:32.862Z,40.17
2023-06-19T16:47:59.356Z,40.33
2023-06-19T16:50:27.286Z,40.62
2023-06-19T16:52:53.857Z,40.11
2023-06-19T16:55:23.731Z,40.36
2023-06-19T16:57:50.385Z,40.16
2023-06-19T17:00:18.954Z,40.07
2023-06-19T17:02:46.550Z,40.30
2023-06-19T17:05:13.774Z,40.42
2023-06-19T17:07:40.443Z,40.51
2023-06-19T17:10:07.219Z,40.53
2023-06-19T17:12:34.421Z,40.51
2023-06-19T17:15:01.570Z,40.77
2023-06-19T17:17:28.614Z,40.71
2023-06-19T17:19:55.443Z,41.13
2023-06-19T17:22:22.867Z,41.14
2023-06-19T17:24:49.561Z,41.38
2023-06-19T17:27:16.297Z,41.16
2023-06-19T17:29:42.884Z,40.98
2023-06-19T17:32:09.820Z,41.07
2023-06-19T17:34:36.442Z,40.84
2023-06-19T17:37:03.120Z,41.20
2023-06-19T17:39:30.051Z,40.99
2023-06-19T17:41:56.496Z,41.43
2023-06-19T17:44:26.753Z,41.52
2023-06-19T17:46:54.119Z,41.14
2023-06-19T17:49:22.745Z,41.52
2023-06-19T17:51:49.771Z,41.61
2023-06-19T17:54:18.059Z,41.71
2023-06-19T17:56:45.805Z,41.80
2023-06-19T17:59:14.656Z,41.64
2023-06-19T18:01:41.148Z,41.80
2023-06-19T18:04:07.575Z,41.61
2023-06-19T18:06:33.925Z,41.70
2023-06-19T18:09:00.324Z,41.92
2023-06-19T18:11:26.931Z,41.60
2023-06-19T18:13:53.489Z,41.66
2023-06-19T18:16:20.104Z,41.57
2023-06-19T18:18:47.161Z,41.98
2023-06-19T18:21:13.551Z,41.75
2023-06-19T18:23:39.912Z,41.94
2023-06-19T18:26:06.631Z,41.73
2023-06-19T18:28:33.233Z,41.95
2023-06-19T18:30:59.874Z,41.92
2023-06-19T18:33:26.810Z,41.94
2023-06-19T18:35:53.169Z,42.00
2023-06-19T18:38:19.541Z,41.88
2023-06-19T18:40:46.714Z,42.03
2023-06-19T18:43:13.155Z,42.20
2023-06-19T18:45:39.593Z,42.20
2023-06-19T18:48:07.430Z,42.59
2023-06-19T18:50:34.141Z,42.57
2023-06-19T18:53:00.606Z,42.70
2023-06-19T18:55:27.711Z,42.49
2023-06-19T18:57:54.249Z,42.85
2023-06-19T19:00:20.940Z,42.78
2023-06-19T19:02:47.566Z,42.72
2023-06-19T19:05:14.125Z,43.05
2023-06-19T19:07:40.563Z,42.87
2023-06-19T19:10:07.439Z,42.96
2023-06-19T19:12:37.380Z,43.18
2023-06-19T19:15:04.332Z,43.03
2023-06-19T19:17:30.753Z,43.08
2023-06-19T19:19:57.343Z,43.14
2023-06-19T19:22:24.420Z,43.17
2023-06-19T19:24:51.008Z,43.34
2023-06-19T19:27:17.717Z,43.58
2023-06-19T19:29:44.350Z,43.82
2023-06-19T19:32:10.790Z,43.76
2023-06-19T19:34:37.346Z,43.94
2023-06-19T19:37:03.784Z,43.85
2023-06-19T19:39:34.336Z,43.72
2023-06-19T19:42:01.890Z,43.98
2023-06-19T19:44:28.456Z,44.27
2023-06-19T19:46:56.426Z,44.28
2023-06-19T19:49:23.490Z,44.56
2023-06-19T19:51:50.210Z,44.43
2023-06-19T19:54:16.952Z,44.54
2023-06-19T19:56:44.016Z,44.87
2023-06-19T19:59:10.758Z,45.10
2023-06-19T20:01:37.507Z,45.04
2023-06-19T20:04:04.197Z,45.06
2023-06-19T20:06:32.643Z,45.30
2023-06-19T20:09:00.045Z,45.25
2023-06-19T20:11:28.748Z,45.40
2023-06-19T20:13:56.704Z,45.62
2023-06-19T20:16:23.666Z,45.57
2023-06-19T20:18:51.406Z,45.60
2023-06-19T20:21:17.768Z,45.65
2023-06-19T20:23:44.443Z,45.92
2023-06-19T20:26:10.949Z,46.00
2023-06-19T20:28:39.588Z,45.95
2023-06-19T20:31:06.139Z,46.25
2023-06-19T20:33:32.745Z,46.21
2023-06-19T20:36:02.260Z,46.46
2023-06-19T20:38:29.208Z,46.50
2023-06-19T20:40:55.867Z,46.35
2023-06-19T20:43:22.882Z,46.46
2023-06-19T20:45:50.052Z,46.70
2023-06-19T20:48:16.724Z,46.84
2023-06-19T20:50:43.172Z,47.08
2023-06-19T20:53:09.717Z,47.12
2023-06-19T20:55:36.287Z,47.20
2023-06-19T20:58:05.498Z,47.58
2023-06-19T21:00:32.977Z,47.74
2023-06-19T21:03:00.666Z,47.67
2023-06-19T21:05:28.150Z,48.31
2023-06-19T21:07:54.936Z,48.31
2023-06-19T21:10:21.396Z,48.34
2023-06-19T21:12:48.038Z,48.37
2023-06-19T21:15:14.532Z,48.52
2023-06-19T21:17:41.525Z,48.54
2023-06-19T21:20:11.154Z,48.98
2023-06-19T21:22:39.068Z,48.94
2023-06-19T21:25:06.637Z,49.04
2023-06-19T21:27:34.572Z,48.92
2023-06-19T21:30:01.316Z,49.17
2023-06-19T21:32:28.003Z,49.24
2023-06-19T21:34:54.380Z,49.62
2023-06-19T21:37:20.920Z,49.62
2023-06-19T21:39:48.658Z,49.81
2023-06-19T21:42:15.032Z,49.97
2023-06-19T21:44:44.310Z,49.98
2023-06-19T21:47:11.342Z,49.97
2023-06-19T21:49:41.144Z,50.07
2023-06-19T21:52:08.615Z,50.19
2023-06-19T21:54:35.340Z,50.54
2023-06-19T21:57:02.231Z,50.87
2023-06-19T21:59:28.831Z,50.76
2023-06-19T22:01:55.182Z,50.83
2023-06-19T22:04:21.621Z,51.44
2023-06-19T22:06:48.161Z,51.73
2023-06-19T22:09:14.770Z,51.68
2023-06-19T22:11:41.172Z,51.97
2023-06-19T22:14:08.752Z,52.51
2023-06-19T22:16:35.441Z,52.55
2023-06-19T22:19:03.513Z,52.63
2023-06-19T22:21:30.131Z,52.73
2023-06-19T22:23:56.550Z,52.94
2023-06-19T22:26:23.160Z,52.69
2023-06-19T22:28:49.813Z,52.98
2023-06-19T22:31:16.478Z,53.09
2023-06-19T22:33:42.931Z,53.41
2023-06-19T22:36:11.831Z,53.22
2023-06-19T22:38:38.483Z,53.23
2023-06-19T22:41:05.273Z,53.55
2023-06-19T22:43:31.692Z,53.46
2023-06-19T22:45:58.406Z,53.47
2023-06-19T22:48:27.454Z,53.57
2023-06-19T22:50:54.250Z,53.33
2023-06-19T22:53:21.553Z,53.32
2023-06-19T22:55:48.281Z,53.51
2023-06-19T22:58:14.722Z,53.83
2023-06-19T23:00:41.320Z,53.91
2023-06-19T23:03:08.094Z,54.01
2023-06-19T23:05:34.767Z,53.93
2023-06-19T23:08:01.139Z,54.21
2023-06-19T23:10:27.507Z,54.36
2023-06-19T23:12:53.946Z,54.32
2023-06-19T23:15:21.282Z,54.38
2023-06-19T23:17:48.811Z,54.45
2023-06-19T23:20:16.058Z,54.57
2023-06-19T23:22:43.000Z,55.10
2023-06-19T23:25:09.794Z,54.81
2023-06-19T23:27:36.409Z,55.19
2023-06-19T23:30:03.599Z,55.21
2023-06-19T23:32:30.195Z,54.99
2023-06-19T23:34:56.717Z,55.32
2023-06-19T23:37:23.155Z,55.29
2023-06-19T23:39:49.541Z,55.72
2023-06-19T23:42:16.111Z,55.70
2023-06-19T23:44:42.714Z,55.82
2023-06-19T23:47:09.295Z,55.86
2023-06-19T23:49:36.021Z,55.99
2023-06-19T23:52:02.384Z,56.37
2023-06-19T23:54:28.718Z,56.56
2023-06-19T23:56:55.104Z,56.91
2023-06-19T23:59:21.657Z,56.55
